Roberts, WI (54023)

04:25 CDT le 25 octobre 2014 (GMT -0500)
Farm View Ridge | Change Station
CLOSE
Current Station
Stations météorologiques personnelles
Location: Hammond, WI
Altitude: 1102 ft
Stations météo à proximité

Alt. 1102 ft 45.03 °N, 92.46 °W | Updated 7 seconds ago

Ciel dégagé
Ciel dégagé
50.1 ° F
Paraît 50.1 ° F
N
3.0
Vent Variable Vent de ONO
Gusts 6.0 mph

Aujourd'hui
Haut(e) -- | Bas -- ° F
--% Risque de précip.
Hier
Haut(e) -- | Bas -- ° F
Precip. -- pouce
7:39 AM 6:08 PM
Nouvelle lune, 2% visible
Pression 29.94 pouce
Visibilité 10.0 Miles terrestres
Nuages Ciel dégagé
Point de rosée 41 ° F
Humidité 72%
Précipitations 0.00 pouce
Profondeur de la couche neigeuse Non disponible.
UV 0 sur 12
Pollen .90 sur 12
Ozone Bon
PM2.5 Bon
Flu Activity Sporadic
METAR KRNH 250915Z AUTO 29008KT 10SM CLR 11/03 A2994 RMK AO2 T01110028

More Conditions Fewer Conditions

Pression 29.94 pouce
Visibilité 10.0 Miles terrestres
Nuages Ciel dégagé
Point de rosée 41 ° F
Humidité 72%
Précipitations 0.00 pouce
Profondeur de la couche neigeuse Non disponible.
UV 0 sur 12
Pollen .90 sur 12
Ozone Bon
PM2.5 Bon
Flu Activity Sporadic
METAR KRNH 250915Z AUTO 29008KT 10SM CLR 11/03 A2994 RMK AO2 T01110028

More Conditions Fewer Conditions

10-Day Weather Forecast

Almanac

Astronomie

Oct. 25, 2014 Lever Coucher
Temps réel 07:39 CDT 18:08 CDT
Crépuscule civil 07:09 CDT 18:38 CDT
Crépuscule nautique 06:34 CDT 19:13 CDT
Crépuscule astronomique 06:00 CDT 19:47 CDT
Lune 09:21 CDT 19:28 CDT
Durée de lumière visible 11h 29m
Longueur du jour
10h 29m
Tomorrow will be 2m 54s shorter.
Nouvelle lune, 2% of the Moon is Illuminated
Aujourd'hui
Nouvelle lune
Oct 30
Premier quartier
Nov 6
Pleine lune
Nov 14
Dernier quartier
Nov 22
Nouveau

Extrêmes aujourd'hui

State Highs State Lows

Community

WunderPhotos

Upload Photos

1,764,796 Photos téléchargées !

Nearby

Qualité de l'air

  Qualité de l'air Indice de la qualité de l'air Polluant
Hier Moyen
PM2.5
Hier Bon
OZONE
Actuel Bon
PM2.5
Actuel Bon
OZONE
samedi Bon
PM2.5
dimanche Moyen
PM2.5
lundi Bon
PM2.5
mardi Bon
PM2.5
mercredi Bon
PM2.5

Épaisseur de neige

Station Depth Altitude
Pas de nouvelles chutes de neige

Activité sismique

Ville Distance Mag. Time & Date
No recent earthquake activity has been reported nearby.
Minimum magnitude displayed is 2.5.

Températures des eaux côtières

Lieu Température
Aucun rapport de station

Stations météo à proximité